Terminal Aerodrome Forecast
Issued by NWS Pendleton, OR

Home | Current Version | Previous Version | Text Only | Print | Product List | Glossary On
Versions: 1 2 3 4 5 6 7 8 9 10 11 12 13
000
FTUS46 KPDT 301700
TAFPDT
TAF
KPDT 301740Z 3018/3118 VRB06KT P6SM FEW150 FEW200
     FM302100 31010KT P6SM FEW150 SCT250
     FM310400 24005KT P6SM FEW120 SCT200
     FM310900 18007KT P6SM SCT130
     FM311300 VRB05KT P6SM SCT130 BKN150=

USA.gov is the U.S. government's official web portal to all federal, state and local government web resources and services.